Ask Your Question

Rogeeeer's profile - karma

Rogeeeer's karma change log

10 0 Matrix multiplication ( 2017-07-22 08:42:19 -0500 )

10 0 opencv -display multiple images in single window ( 2015-04-10 23:37:07 -0500 )

0 -10 cv::findContours understanding. ( 2013-12-03 09:41:52 -0500 )

10 0 cv::findContours understanding. ( 2013-12-03 09:41:49 -0500 )

10 0 superimpose 3D graphics objects on the recognized object ( 2013-06-13 05:44:09 -0500 )

0 -15 opencv -display multiple images in single window ( 2013-05-22 08:48:22 -0500 )

15 0 opencv -display multiple images in single window ( 2013-05-22 08:48:21 -0500 )

0 -15 opencv -display multiple images in single window ( 2013-05-22 08:48:08 -0500 )

15 0 opencv -display multiple images in single window ( 2013-05-22 08:48:07 -0500 )

0 0 opencv -display multiple images in single window ( 2013-05-22 08:48:04 -0500 )

10 0 opencv -display multiple images in single window ( 2013-05-22 05:51:36 -0500 )

5 0 Matrix multiplication ( 2013-05-16 08:58:47 -0500 )

0 -2 Matrix multiplication ( 2013-05-16 08:58:43 -0500 )

5 0 Matrix multiplication ( 2013-05-16 08:58:40 -0500 )

10 0 superimpose 3D graphics objects on the recognized object ( 2013-04-30 08:34:39 -0500 )

10 0 superimpose 3D graphics objects on the recognized object ( 2013-04-30 07:51:46 -0500 )

10 0 how do we get yaw, roll, pitch from POSIT rotation matrix ( 2013-04-29 07:08:25 -0500 )

10 0 how do we get yaw, roll, pitch from POSIT rotation matrix ( 2013-04-29 03:53:29 -0500 )

10 0 Get top-down view ( 2013-04-26 07:41:06 -0500 )

0 -10 Get top-down view ( 2013-04-26 07:41:04 -0500 )

10 0 Get top-down view ( 2013-04-26 07:37:54 -0500 )

10 0 Compute pose using feature points ( 2013-04-26 03:52:37 -0500 )

10 0 Defined an object on photo observed at a certain angle. Appreciate its size. ( 2013-04-26 03:17:20 -0500 )

10 0 Set the OpenCV enviroment variable and add it to the systems path ( 2013-04-26 03:05:31 -0500 )

10 0 Defined an object on photo observed at a certain angle. Appreciate its size. ( 2013-04-26 03:04:37 -0500 )

10 0 OpenCV includes / libraries documetation ( 2013-04-25 04:21:55 -0500 )

10 0 OpenCV includes / libraries documetation ( 2013-04-25 04:05:19 -0500 )

15 0 Saving High Quality Image ( 2013-04-24 23:49:17 -0500 )

10 0 Saving High Quality Image ( 2013-04-24 09:23:28 -0500 )

10 0 POSIT params without camera ( 2013-04-20 13:44:58 -0500 )